createdAt,value
2022-09-17T00:01:33.220Z,23.08
2022-09-17T00:04:04.749Z,22.97
2022-09-17T00:06:35.040Z,22.91
2022-09-17T00:09:04.297Z,22.88
2022-09-17T00:11:36.560Z,22.77
2022-09-17T00:14:07.144Z,22.86
2022-09-17T00:16:40.330Z,22.92
2022-09-17T00:19:15.492Z,22.97
2022-09-17T00:21:44.640Z,22.96
2022-09-17T00:24:13.872Z,22.87
2022-09-17T00:26:42.083Z,22.87
2022-09-17T00:29:12.762Z,22.70
2022-09-17T00:31:40.841Z,22.73
2022-09-17T00:34:09.333Z,22.62
2022-09-17T00:36:39.091Z,22.63
2022-09-17T00:39:09.537Z,22.72
2022-09-17T00:41:38.731Z,22.60
2022-09-17T00:44:48.230Z,22.64
2022-09-17T00:47:35.921Z,22.63
2022-09-17T00:50:14.911Z,22.71
2022-09-17T00:52:46.533Z,22.67
2022-09-17T00:55:24.637Z,22.46
2022-09-17T00:57:58.822Z,22.30
2022-09-17T01:00:28.348Z,22.32
2022-09-17T01:02:56.012Z,22.40
2022-09-17T01:05:49.786Z,22.14
2022-09-17T01:08:53.874Z,21.80
2022-09-17T01:11:30.189Z,21.70
2022-09-17T01:14:23.537Z,21.56
2022-09-17T01:17:09.998Z,21.67
2022-09-17T01:20:30.471Z,21.47
2022-09-17T01:23:21.961Z,21.43
2022-09-17T01:26:10.575Z,21.37
2022-09-17T01:28:54.634Z,21.24
2022-09-17T01:31:53.019Z,21.23
2022-09-17T01:34:59.691Z,21.13
2022-09-17T01:37:39.592Z,21.06
2022-09-17T01:40:32.467Z,21.14
2022-09-17T01:43:10.925Z,21.20
2022-09-17T01:45:43.805Z,20.97
2022-09-17T01:48:35.610Z,20.94
2022-09-17T01:51:14.860Z,21.05
2022-09-17T01:53:51.475Z,20.93
2022-09-17T01:56:25.568Z,21.00
2022-09-17T01:59:11.572Z,20.90
2022-09-17T02:01:43.685Z,20.78
2022-09-17T02:05:03.844Z,20.77
2022-09-17T02:07:37.199Z,20.78
2022-09-17T02:10:12.970Z,20.86
2022-09-17T02:12:52.543Z,20.81
2022-09-17T02:15:33.629Z,20.77
2022-09-17T02:18:26.038Z,20.70
2022-09-17T02:21:06.123Z,20.65
2022-09-17T02:24:01.650Z,20.82
2022-09-17T02:29:21.124Z,20.81
2022-09-17T02:31:48.817Z,21.00
2022-09-17T02:34:16.570Z,20.80
2022-09-17T02:36:44.085Z,20.81
2022-09-17T02:39:11.632Z,20.76
2022-09-17T02:41:58.615Z,20.71
2022-09-17T02:44:55.365Z,20.70
2022-09-17T02:47:59.895Z,20.61
2022-09-17T02:51:11.374Z,20.75
2022-09-17T02:54:05.985Z,20.97
2022-09-17T02:56:54.423Z,20.84
2022-09-17T02:59:42.585Z,20.72
2022-09-17T03:02:26.749Z,20.63
2022-09-17T03:04:55.710Z,20.77
2022-09-17T03:07:24.314Z,20.75
2022-09-17T03:09:51.944Z,20.59
2022-09-17T03:12:19.451Z,20.57
2022-09-17T03:14:46.997Z,20.64
2022-09-17T03:17:14.980Z,20.68
2022-09-17T03:19:42.670Z,20.65
2022-09-17T03:22:10.184Z,20.69
2022-09-17T03:24:37.629Z,20.58
2022-09-17T03:27:05.476Z,20.44
2022-09-17T03:29:32.937Z,20.43
2022-09-17T03:32:01.089Z,20.35
2022-09-17T03:34:28.540Z,20.31
2022-09-17T03:36:56.033Z,20.35
2022-09-17T03:39:23.488Z,20.38
2022-09-17T03:41:51.489Z,20.48
2022-09-17T03:44:19.531Z,20.41
2022-09-17T03:46:47.087Z,20.40
2022-09-17T03:49:14.722Z,20.39
2022-09-17T03:51:42.184Z,20.41
2022-09-17T03:54:09.721Z,20.30
2022-09-17T03:56:37.228Z,20.51
2022-09-17T03:59:04.818Z,20.51
2022-09-17T04:01:32.760Z,20.54
2022-09-17T04:04:00.574Z,20.47
2022-09-17T04:06:28.185Z,20.51
2022-09-17T04:08:56.943Z,20.50
2022-09-17T04:11:24.600Z,20.57
2022-09-17T04:13:53.215Z,20.53
2022-09-17T04:16:20.812Z,20.53
2022-09-17T04:18:48.310Z,20.58
2022-09-17T04:21:16.873Z,20.60
2022-09-17T04:23:44.362Z,20.58
2022-09-17T04:26:12.174Z,20.58
2022-09-17T04:28:39.692Z,20.63
2022-09-17T04:31:07.306Z,20.77
2022-09-17T04:33:34.867Z,20.89
2022-09-17T04:36:02.671Z,20.72
2022-09-17T04:38:30.551Z,20.51
2022-09-17T04:40:58.033Z,20.60
2022-09-17T04:43:25.718Z,20.62
2022-09-17T04:45:53.179Z,20.70
2022-09-17T04:48:20.634Z,20.74
2022-09-17T04:50:48.162Z,20.79
2022-09-17T04:53:15.628Z,20.81
2022-09-17T04:55:44.401Z,20.98
2022-09-17T04:58:14.997Z,21.05
2022-09-17T05:00:42.653Z,21.22
2022-09-17T05:03:10.368Z,21.36
2022-09-17T05:05:37.919Z,21.49
2022-09-17T05:08:05.810Z,21.61
2022-09-17T05:10:33.256Z,21.60
2022-09-17T05:13:01.085Z,21.78
2022-09-17T05:15:28.573Z,22.15
2022-09-17T05:17:56.023Z,22.16
2022-09-17T05:20:23.574Z,21.95
2022-09-17T05:22:52.895Z,22.02
2022-09-17T05:25:25.497Z,22.05
2022-09-17T05:27:54.655Z,22.06
2022-09-17T05:30:22.501Z,22.18
2022-09-17T05:32:56.031Z,22.33
2022-09-17T05:35:23.739Z,22.45
2022-09-17T05:37:51.194Z,22.56
2022-09-17T05:40:18.817Z,22.69
2022-09-17T05:42:46.284Z,22.85
2022-09-17T05:45:14.000Z,23.06
2022-09-17T05:47:41.429Z,23.25
2022-09-17T05:50:09.537Z,23.36
2022-09-17T05:52:37.010Z,23.47
2022-09-17T05:55:04.880Z,23.64
2022-09-17T05:57:32.351Z,24.32
2022-09-17T05:59:59.914Z,24.25
2022-09-17T06:02:27.432Z,24.29
2022-09-17T06:04:55.710Z,24.58
2022-09-17T06:07:23.744Z,24.30
2022-09-17T06:09:51.189Z,24.50
2022-09-17T06:12:18.652Z,24.83
2022-09-17T06:14:46.217Z,24.78
2022-09-17T06:17:13.678Z,24.52
2022-09-17T06:19:41.114Z,24.53
2022-09-17T06:22:08.555Z,24.89
2022-09-17T06:24:36.096Z,24.96
2022-09-17T06:27:03.770Z,25.18
2022-09-17T06:29:31.367Z,25.04
2022-09-17T06:31:58.834Z,24.74
2022-09-17T06:34:27.065Z,24.96
2022-09-17T06:36:54.530Z,25.06
2022-09-17T06:39:22.230Z,25.31
2022-09-17T06:41:49.746Z,25.47
2022-09-17T06:44:17.190Z,25.39
2022-09-17T06:46:44.853Z,25.33
2022-09-17T06:49:12.353Z,25.17
2022-09-17T06:51:39.825Z,25.07
2022-09-17T06:54:08.361Z,25.32
2022-09-17T06:56:35.965Z,25.27
2022-09-17T06:59:04.059Z,25.18
2022-09-17T07:01:31.582Z,25.03
2022-09-17T07:03:59.172Z,25.01
2022-09-17T07:06:26.783Z,25.35
2022-09-17T07:08:54.388Z,25.40
2022-09-17T07:11:21.964Z,25.50
2022-09-17T07:13:49.445Z,25.38
2022-09-17T07:16:17.050Z,25.55
2022-09-17T07:18:44.536Z,25.44
2022-09-17T07:21:12.884Z,25.65
2022-09-17T07:23:40.402Z,25.34
2022-09-17T07:26:13.540Z,25.27
2022-09-17T07:28:43.757Z,25.83
2022-09-17T07:31:16.362Z,26.06
2022-09-17T07:33:46.647Z,25.76
2022-09-17T07:36:18.410Z,25.76
2022-09-17T07:38:46.196Z,25.66
2022-09-17T07:41:16.730Z,25.95
2022-09-17T07:43:44.960Z,26.23
2022-09-17T07:46:20.613Z,26.44
2022-09-17T07:48:49.768Z,26.38
2022-09-17T07:51:23.479Z,26.53
2022-09-17T07:53:55.447Z,26.63
2022-09-17T07:56:23.908Z,26.80
2022-09-17T07:58:51.688Z,26.74
2022-09-17T08:01:23.370Z,26.83
2022-09-17T08:03:54.224Z,26.88
2022-09-17T08:06:28.163Z,27.22
2022-09-17T08:08:57.820Z,27.40
2022-09-17T08:11:54.638Z,27.69
2022-09-17T08:14:18.546Z,27.64
2022-09-17T08:16:48.237Z,27.96
2022-09-17T08:19:19.040Z,27.95
2022-09-17T08:21:47.039Z,27.96
2022-09-17T08:24:14.577Z,27.60
2022-09-17T08:26:42.213Z,27.57
2022-09-17T08:29:11.355Z,27.99
2022-09-17T08:31:41.169Z,28.24
2022-09-17T08:34:10.244Z,28.99
2022-09-17T08:36:38.101Z,28.58
2022-09-17T08:39:05.823Z,28.62
2022-09-17T08:41:51.850Z,28.53
2022-09-17T08:44:41.817Z,28.83
2022-09-17T08:47:36.562Z,28.83
2022-09-17T08:50:15.463Z,28.74
2022-09-17T08:53:10.562Z,29.05
2022-09-17T08:55:44.828Z,29.28
2022-09-17T08:58:30.924Z,29.32
2022-09-17T09:01:52.843Z,29.15
2022-09-17T09:04:50.356Z,29.21
2022-09-17T09:07:34.758Z,29.84
2022-09-17T09:10:33.723Z,30.22
2022-09-17T09:13:03.573Z,30.43
2022-09-17T09:15:59.619Z,30.56
2022-09-17T09:18:31.669Z,30.50
2022-09-17T09:21:30.601Z,30.63
2022-09-17T09:24:00.912Z,31.08
2022-09-17T09:26:45.024Z,31.08
2022-09-17T09:29:46.039Z,31.36
2022-09-17T09:32:58.675Z,31.32
2022-09-17T09:35:34.263Z,31.51
2022-09-17T09:38:35.986Z,31.55
2022-09-17T09:41:27.017Z,31.29
2022-09-17T09:44:17.413Z,30.91
2022-09-17T09:47:42.892Z,31.14
2022-09-17T09:51:06.208Z,31.20
2022-09-17T09:53:52.740Z,31.65
2022-09-17T09:56:28.613Z,31.66
2022-09-17T09:58:57.233Z,31.58
2022-09-17T10:01:29.067Z,31.73
2022-09-17T10:03:59.012Z,31.87
2022-09-17T10:06:31.690Z,31.99
2022-09-17T10:09:02.182Z,31.92
2022-09-17T10:11:35.252Z,32.03
2022-09-17T10:14:30.104Z,32.07
2022-09-17T10:17:26.232Z,31.81
2022-09-17T10:20:15.749Z,31.69
2022-09-17T10:22:48.816Z,31.58
2022-09-17T10:25:32.226Z,31.33
2022-09-17T10:28:03.840Z,30.98
2022-09-17T10:30:31.666Z,30.78
2022-09-17T10:33:22.147Z,30.66
2022-09-17T10:36:06.439Z,30.70
2022-09-17T10:38:47.681Z,30.55
2022-09-17T10:41:42.450Z,30.19
2022-09-17T10:44:21.297Z,29.99
2022-09-17T10:46:49.103Z,29.90
2022-09-17T10:49:44.283Z,29.50
2022-09-17T10:52:39.454Z,29.15
2022-09-17T10:55:41.371Z,28.89
2022-09-17T10:58:08.746Z,28.78
2022-09-17T11:01:00.182Z,28.35
2022-09-17T11:03:57.589Z,28.22
2022-09-17T11:06:28.346Z,28.07
2022-09-17T11:09:07.662Z,27.71
2022-09-17T11:11:48.054Z,27.72
2022-09-17T11:15:02.030Z,27.56
2022-09-17T11:17:53.880Z,27.34
2022-09-17T11:21:11.382Z,27.40
2022-09-17T11:24:20.197Z,26.81
2022-09-17T11:27:19.661Z,26.20
2022-09-17T11:30:38.359Z,25.10
2022-09-17T11:33:45.691Z,23.80
2022-09-17T11:36:23.445Z,22.55
2022-09-17T11:38:55.156Z,22.40
2022-09-17T11:41:37.562Z,22.38
2022-09-17T11:44:31.292Z,22.10
2022-09-17T11:47:15.368Z,22.07
2022-09-17T11:50:11.476Z,21.96
2022-09-17T11:52:51.142Z,22.17
2022-09-17T11:56:00.975Z,22.07
2022-09-17T11:58:44.970Z,22.23
2022-09-17T12:04:46.284Z,22.54
2022-09-17T12:07:41.615Z,22.74
2022-09-17T12:10:41.995Z,22.72
2022-09-17T12:13:48.557Z,22.93
2022-09-17T12:16:27.122Z,23.17
2022-09-17T12:19:07.811Z,23.40
2022-09-17T12:21:57.365Z,23.53
2022-09-17T12:24:31.065Z,23.81
2022-09-17T12:27:38.323Z,23.97
2022-09-17T12:30:15.172Z,24.22
2022-09-17T12:33:53.908Z,24.15
2022-09-17T12:37:13.937Z,24.39
2022-09-17T12:40:25.411Z,24.63
2022-09-17T12:43:06.368Z,24.65
2022-09-17T12:45:54.535Z,24.89
2022-09-17T12:48:59.025Z,25.20
2022-09-17T12:51:47.330Z,25.47
2022-09-17T12:55:00.628Z,25.45
2022-09-17T12:58:26.514Z,25.50
2022-09-17T13:01:14.806Z,25.86
2022-09-17T13:04:14.945Z,26.44
2022-09-17T13:07:13.727Z,27.17
2022-09-17T13:10:49.071Z,27.88
2022-09-17T13:13:48.970Z,28.38
2022-09-17T13:16:24.075Z,28.91
2022-09-17T13:19:17.215Z,29.00
2022-09-17T13:22:01.572Z,28.84
2022-09-17T13:24:31.631Z,28.93
2022-09-17T13:27:02.568Z,29.39
2022-09-17T13:29:46.260Z,29.46
2022-09-17T13:32:36.834Z,30.08
2022-09-17T13:35:10.287Z,30.76
2022-09-17T13:37:55.951Z,30.57
2022-09-17T13:40:35.111Z,30.90
2022-09-17T13:43:08.381Z,30.90
2022-09-17T13:46:04.591Z,31.10
2022-09-17T13:48:35.490Z,30.71
2022-09-17T13:51:30.829Z,30.82
2022-09-17T13:54:12.091Z,30.89
2022-09-17T13:57:02.767Z,30.95
2022-09-17T13:59:31.360Z,30.76
2022-09-17T14:02:17.235Z,30.68
2022-09-17T14:04:46.681Z,31.00
2022-09-17T14:07:28.997Z,31.59
2022-09-17T14:10:15.243Z,31.66
2022-09-17T14:12:52.275Z,31.80
2022-09-17T14:15:43.591Z,31.73
2022-09-17T14:18:29.530Z,31.67
2022-09-17T14:21:27.875Z,31.16
2022-09-17T14:24:00.942Z,30.71
2022-09-17T14:27:12.444Z,30.48
2022-09-17T14:30:02.974Z,30.02
2022-09-17T14:33:00.712Z,29.81
2022-09-17T14:35:37.062Z,29.32
2022-09-17T14:38:25.004Z,29.19
2022-09-17T14:41:03.621Z,28.89
2022-09-17T14:44:20.942Z,28.33
2022-09-17T14:47:18.255Z,28.35
2022-09-17T14:49:47.182Z,27.91
2022-09-17T14:52:40.447Z,27.67
2022-09-17T14:55:20.747Z,27.57
2022-09-17T14:58:04.761Z,27.50
2022-09-17T15:00:38.285Z,27.59
2022-09-17T15:03:06.893Z,27.62
2022-09-17T15:05:40.270Z,27.30
2022-09-17T15:08:10.456Z,27.16
2022-09-17T15:11:09.917Z,27.15
2022-09-17T15:13:51.927Z,26.64
2022-09-17T15:16:26.513Z,26.58
2022-09-17T15:19:00.066Z,26.64
2022-09-17T15:21:45.934Z,26.61
2022-09-17T15:24:34.759Z,26.50
2022-09-17T15:27:23.591Z,26.56
2022-09-17T15:30:05.426Z,26.49
2022-09-17T15:32:38.533Z,26.19
2022-09-17T15:35:21.915Z,26.31
2022-09-17T15:38:23.211Z,26.13
2022-09-17T15:40:56.536Z,26.11
2022-09-17T15:43:35.498Z,25.86
2022-09-17T15:46:30.754Z,25.42
2022-09-17T15:49:03.008Z,25.56
2022-09-17T15:51:36.230Z,25.54
2022-09-17T15:54:25.567Z,25.86
2022-09-17T15:57:05.110Z,25.44
2022-09-17T15:59:36.688Z,25.27
2022-09-17T16:02:11.238Z,24.97
2022-09-17T16:04:42.552Z,24.40
2022-09-17T16:08:01.611Z,24.06
2022-09-17T16:29:06.061Z,22.19
2022-09-17T16:31:34.771Z,22.29
2022-09-17T16:34:02.843Z,22.23
2022-09-17T16:36:34.513Z,21.89
2022-09-17T16:39:03.101Z,21.71
2022-09-17T16:41:33.174Z,21.63
2022-09-17T16:44:02.423Z,21.89
2022-09-17T16:46:31.050Z,21.98
2022-09-17T16:49:00.803Z,22.07
2022-09-17T16:51:28.485Z,22.14
2022-09-17T16:53:58.261Z,22.15
2022-09-17T16:56:25.714Z,22.26
2022-09-17T16:58:56.809Z,22.21
2022-09-17T17:01:24.375Z,22.25
2022-09-17T17:03:54.489Z,22.35
2022-09-17T17:06:22.910Z,22.41
2022-09-17T17:08:50.409Z,22.53
2022-09-17T17:11:17.918Z,22.47
2022-09-17T17:13:46.338Z,22.48
2022-09-17T17:16:16.189Z,22.56
2022-09-17T17:18:44.962Z,22.67
2022-09-17T17:21:15.254Z,22.99
2022-09-17T17:23:47.853Z,22.78
2022-09-17T17:26:21.155Z,22.59
2022-09-17T17:28:50.396Z,22.49
2022-09-17T17:31:18.195Z,22.56
2022-09-17T17:33:47.101Z,22.34
2022-09-17T17:36:14.717Z,22.26
2022-09-17T17:38:43.015Z,22.34
2022-09-17T17:41:13.615Z,22.39
2022-09-17T17:43:42.756Z,22.62
2022-09-17T17:46:13.075Z,22.68
2022-09-17T17:48:40.648Z,22.66
2022-09-17T17:51:11.002Z,22.73
2022-09-17T17:53:42.305Z,22.80
2022-09-17T17:56:15.262Z,22.84
2022-09-17T17:58:42.962Z,22.44
2022-09-17T18:01:23.167Z,22.92
2022-09-17T18:03:55.348Z,23.10
2022-09-17T18:06:22.902Z,22.47
2022-09-17T18:08:50.429Z,22.45
2022-09-17T18:11:18.559Z,22.40
2022-09-17T18:13:46.061Z,22.31
2022-09-17T18:16:15.085Z,22.18
2022-09-17T18:19:05.867Z,22.12
2022-09-17T18:21:33.488Z,22.06
2022-09-17T18:24:00.947Z,21.89
2022-09-17T18:26:29.463Z,21.76
2022-09-17T18:28:57.168Z,21.94
2022-09-17T18:31:31.444Z,22.05
2022-09-17T18:34:15.597Z,21.67
2022-09-17T18:36:50.754Z,21.40
2022-09-17T18:42:09.576Z,20.87
2022-09-17T18:44:37.054Z,20.73
2022-09-17T18:47:07.782Z,21.08
2022-09-17T18:49:35.271Z,20.99
2022-09-17T18:52:02.970Z,20.91
2022-09-17T18:54:30.422Z,20.87
2022-09-17T18:56:57.893Z,20.79
2022-09-17T18:59:25.565Z,20.75
2022-09-17T19:01:56.498Z,20.86
2022-09-17T19:04:23.987Z,20.80
2022-09-17T19:06:51.742Z,20.85
2022-09-17T19:09:22.282Z,20.81
2022-09-17T19:11:51.171Z,20.60
2022-09-17T19:14:18.631Z,20.61
2022-09-17T19:16:49.104Z,21.05
2022-09-17T19:19:19.968Z,21.44
2022-09-17T19:21:50.698Z,21.60
2022-09-17T19:24:18.713Z,21.66
2022-09-17T19:26:50.840Z,21.16
2022-09-17T19:29:18.890Z,21.34
2022-09-17T19:31:47.051Z,21.20
2022-09-17T19:34:14.614Z,20.95
2022-09-17T19:36:42.767Z,20.76
2022-09-17T19:39:10.294Z,20.63
2022-09-17T19:41:38.475Z,20.62
2022-09-17T19:44:06.117Z,20.55
2022-09-17T19:46:33.725Z,20.57
2022-09-17T19:49:01.554Z,20.64
2022-09-17T19:51:32.407Z,20.42
2022-09-17T19:54:00.237Z,20.55
2022-09-17T19:56:28.670Z,20.50
2022-09-17T19:58:57.426Z,20.43
2022-09-17T20:01:25.090Z,20.42
2022-09-17T20:03:53.631Z,20.57
2022-09-17T20:06:23.987Z,20.61
2022-09-17T20:08:55.903Z,20.78
2022-09-17T20:11:25.963Z,20.85
2022-09-17T20:14:06.659Z,20.68
2022-09-17T20:16:37.719Z,20.55
2022-09-17T20:19:07.135Z,20.56
2022-09-17T20:21:35.004Z,20.54
2022-09-17T20:24:02.788Z,20.56
2022-09-17T20:26:30.211Z,20.52
2022-09-17T20:28:57.848Z,20.65
2022-09-17T20:31:29.977Z,20.55
2022-09-17T20:34:00.609Z,20.63
2022-09-17T20:36:31.706Z,20.79
2022-09-17T20:39:21.940Z,20.66
2022-09-17T20:41:47.200Z,20.71
2022-09-17T20:44:14.779Z,20.73
2022-09-17T20:46:42.362Z,20.77
2022-09-17T20:49:10.028Z,20.65
2022-09-17T20:51:37.552Z,20.62
2022-09-17T20:54:05.931Z,20.69
2022-09-17T20:56:35.618Z,20.66
2022-09-17T20:59:14.366Z,20.57
2022-09-17T21:01:45.421Z,20.58
2022-09-17T21:04:17.060Z,20.64
2022-09-17T21:06:45.680Z,20.57
2022-09-17T21:09:17.880Z,20.54
2022-09-17T21:11:49.319Z,20.55
2022-09-17T21:14:18.295Z,20.51
2022-09-17T21:16:48.774Z,20.57
2022-09-17T21:19:19.982Z,20.58
2022-09-17T21:21:51.689Z,20.53
2022-09-17T21:24:20.387Z,20.52
2022-09-17T21:26:48.237Z,20.40
2022-09-17T21:29:18.459Z,20.39
2022-09-17T21:31:48.422Z,20.39
2022-09-17T21:34:16.371Z,20.38
2022-09-17T21:36:44.654Z,20.37
2022-09-17T21:39:20.263Z,20.25
2022-09-17T21:41:50.487Z,20.28
2022-09-17T21:44:18.232Z,20.29
2022-09-17T21:46:45.803Z,20.35
2022-09-17T21:49:13.579Z,20.35
2022-09-17T21:51:43.540Z,20.33
2022-09-17T21:54:15.945Z,20.33
2022-09-17T21:56:45.530Z,20.14
2022-09-17T21:59:16.123Z,20.20
2022-09-17T22:01:50.563Z,20.26
2022-09-17T22:04:22.055Z,20.22
2022-09-17T22:06:50.686Z,20.20
2022-09-17T22:09:22.244Z,20.13
2022-09-17T22:11:52.434Z,20.20
2022-09-17T22:14:23.349Z,20.15
2022-09-17T22:16:57.027Z,20.19
2022-09-17T22:19:26.667Z,20.18
2022-09-17T22:21:56.483Z,20.14
2022-09-17T22:24:25.457Z,20.08
2022-09-17T22:26:57.742Z,20.02
2022-09-17T22:29:31.582Z,20.09
2022-09-17T22:31:59.298Z,20.12
2022-09-17T22:34:27.130Z,20.10
2022-09-17T22:36:54.636Z,19.97
2022-09-17T22:39:22.643Z,20.01
2022-09-17T22:41:50.629Z,19.99
2022-09-17T22:44:20.399Z,19.94
2022-09-17T22:46:52.451Z,19.95
2022-09-17T22:49:20.331Z,19.95
2022-09-17T22:51:48.177Z,19.95
2022-09-17T22:54:18.283Z,19.88
2022-09-17T22:56:48.233Z,19.83
2022-09-17T22:59:15.927Z,19.68
2022-09-17T23:01:43.518Z,19.88
2022-09-17T23:04:11.345Z,19.66
2022-09-17T23:06:42.138Z,19.60
2022-09-17T23:09:11.495Z,19.34
2022-09-17T23:11:40.064Z,19.42
2022-09-17T23:14:12.914Z,19.27
2022-09-17T23:16:46.930Z,19.35
2022-09-17T23:19:17.963Z,19.24
2022-09-17T23:21:45.993Z,19.41
2022-09-17T23:24:20.300Z,19.46
2022-09-17T23:26:48.582Z,19.54
2022-09-17T23:29:16.327Z,19.40
2022-09-17T23:31:43.891Z,19.18
2022-09-17T23:34:11.427Z,19.10
2022-09-17T23:36:40.195Z,18.99
2022-09-17T23:39:10.301Z,18.93
2022-09-17T23:41:43.150Z,18.92
2022-09-17T23:44:15.430Z,18.89
2022-09-17T23:46:45.664Z,18.94
2022-09-17T23:49:15.825Z,18.99
2022-09-17T23:51:46.298Z,19.06
2022-09-17T23:54:14.112Z,19.05
2022-09-17T23:56:41.742Z,19.05
2022-09-17T23:59:11.116Z,18.89
